Time;durP1;ratioP1;P1;durP2;ratioP2;P2;SDS_P1;SDS_P2;PMS_P1;PMS_P2;Temp;Humidity;BMP_temperature;BMP_pressure;BME280_temperature;BME280_humidity;BME280_pressure;Samples;Min_cycle;Max_cycle;Signal;HPM_P1;HPM_P2
2022/10/20 00:00:58;;;;;;;11.07;6.25;;;7.40;99.90;;;;;;5075966;28;20487;-89
2022/10/20 00:03:24;;;;;;;9.00;6.30;;;7.30;99.90;;;;;;5092831;28;20076;-90
2022/10/20 00:05:50;;;;;;;16.10;6.70;;;7.30;99.90;;;;;;5059692;28;20036;-90
2022/10/20 00:08:15;;;;;;;10.18;6.13;;;7.30;99.90;;;;;;5076205;28;20113;-90
2022/10/20 00:10:41;;;;;;;9.52;5.55;;;7.10;99.90;;;;;;5076392;28;20062;-93
2022/10/20 00:13:07;;;;;;;11.15;5.80;;;7.10;99.90;;;;;;5076004;28;20146;-91
2022/10/20 00:15:33;;;;;;;10.13;6.07;;;6.40;99.90;;;;;;5075745;28;20047;-89
2022/10/20 00:17:59;;;;;;;6.95;5.25;;;7.00;99.90;;;;;;5076005;28;20032;-91
2022/10/20 00:20:24;;;;;;;9.68;4.90;;;7.00;99.90;;;;;;5091790;28;20189;-91
2022/10/20 00:22:50;;;;;;;12.00;6.38;;;7.10;99.90;;;;;;5075905;28;20044;-88
2022/10/20 00:25:16;;;;;;;8.50;6.07;;;7.00;99.90;;;;;;5092373;28;20113;-93
2022/10/20 00:27:41;;;;;;;6.97;6.05;;;6.90;99.90;;;;;;5074562;28;20047;-93
2022/10/20 00:30:07;;;;;;;10.88;6.05;;;6.90;99.90;;;;;;5092356;28;20035;-91
2022/10/20 00:32:34;;;;;;;10.10;6.10;;;6.90;99.90;;;;;;5075514;28;20238;-90
2022/10/20 00:35:00;;;;;;;9.82;5.95;;;8.10;99.90;;;;;;5092391;28;20071;-90
2022/10/20 00:37:25;;;;;;;10.65;5.75;;;6.90;99.90;;;;;;5092397;28;20121;-91
2022/10/20 00:39:51;;;;;;;11.60;6.10;;;6.90;99.90;;;;;;5091033;28;20027;-85
2022/10/20 00:42:17;;;;;;;9.10;5.70;;;7.10;99.90;;;;;;5082335;28;20028;-84
2022/10/20 00:45:13;;;;;;;10.68;6.03;;;7.40;99.90;;;;;;5099337;28;20047;-87
2022/10/20 00:47:53;;;;;;;12.20;5.97;;;7.00;99.90;;;;;;5096298;28;20050;-92
2022/10/20 00:50:23;;;;;;;10.38;6.65;;;7.00;99.90;;;;;;5189891;22;20063;-91
2022/10/20 00:52:48;;;;;;;11.13;6.18;;;7.00;99.90;;;;;;5020291;28;20057;-89
2022/10/20 00:55:18;;;;;;;7.55;5.68;;;7.00;99.90;;;;;;5006011;28;20041;-92
2022/10/20 00:57:45;;;;;;;10.57;5.55;;;7.00;99.90;;;;;;5020518;28;20045;-92
2022/10/20 01:00:11;;;;;;;12.45;5.88;;;7.00;99.90;;;;;;5019656;28;20393;-90
2022/10/20 01:02:37;;;;;;;9.98;5.32;;;7.00;99.90;;;;;;5019102;28;20483;-93
2022/10/20 01:05:03;;;;;;;7.80;5.97;;;7.10;99.90;;;;;;5036146;28;20128;-93
2022/10/20 01:07:29;;;;;;;9.23;6.07;;;7.00;99.90;;;;;;5051856;28;20535;-91
2022/10/20 01:09:55;;;;;;;7.53;5.80;;;6.90;99.90;;;;;;5019847;28;20045;-93
2022/10/20 01:12:52;;;;;;;9.63;5.75;;;7.70;99.90;;;;;;5052344;28;20041;-92
2022/10/20 01:15:37;;;;;;;11.75;5.97;;;6.80;99.90;;;;;;5049661;28;20087;-84
2022/10/20 01:18:34;;;;;;;9.70;5.60;;;6.80;99.90;;;;;;5052628;28;20044;-93
2022/10/20 01:21:11;;;;;;;10.40;5.63;;;6.80;99.90;;;;;;5021223;28;20098;-89
2022/10/20 01:23:55;;;;;;;7.70;5.57;;;6.80;99.90;;;;;;5051778;28;20147;-92
2022/10/20 01:26:39;;;;;;;8.47;5.87;;;6.80;99.90;;;;;;5052001;28;20048;-91
2022/10/20 01:29:27;;;;;;;13.17;6.13;;;6.70;99.90;;;;;;5052510;28;20477;-90
2022/10/20 01:32:10;;;;;;;10.48;6.22;;;6.60;99.90;;;;;;5038418;28;20454;-91
2022/10/20 01:34:48;;;;;;;12.85;6.28;;;6.60;99.90;;;;;;5035542;28;20524;-93
2022/10/20 01:37:27;;;;;;;10.50;6.40;;;6.50;99.90;;;;;;5019418;28;20052;-92
2022/10/20 01:39:55;;;;;;;12.15;6.25;;;6.50;99.90;;;;;;5020617;28;20140;-93
2022/10/20 01:42:22;;;;;;;13.45;5.93;;;6.50;99.90;;;;;;5019132;28;20041;-93
2022/10/20 01:44:48;;;;;;;8.93;5.50;;;6.70;99.90;;;;;;5021269;28;20384;-92
2022/10/20 01:47:14;;;;;;;11.57;6.18;;;6.50;99.90;;;;;;5037992;28;20049;-93
2022/10/20 01:49:43;;;;;;;10.10;5.95;;;6.60;99.90;;;;;;5019167;28;20538;-91
2022/10/20 01:52:12;;;;;;;7.13;5.10;;;6.50;99.90;;;;;;5002338;28;20049;-92
2022/10/20 01:54:38;;;;;;;9.15;5.85;;;6.80;99.90;;;;;;5020125;28;20047;-91
2022/10/20 01:57:21;;;;;;;10.48;5.53;;;6.60;99.90;;;;;;5052696;28;20033;-87
2022/10/20 01:59:57;;;;;;;9.77;6.22;;;6.50;99.90;;;;;;5058557;28;20041;-87
2022/10/20 02:02:26;;;;;;;9.07;5.88;;;7.70;99.90;;;;;;5051841;28;20056;-89
2022/10/20 02:05:05;;;;;;;11.05;6.07;;;6.50;99.90;;;;;;5052513;28;20500;-91
2022/10/20 02:07:30;;;;;;;8.15;5.55;;;6.60;99.90;;;;;;5035147;28;20128;-90
2022/10/20 02:10:02;;;;;;;9.23;6.18;;;6.70;99.90;;;;;;5019158;28;20129;-92
2022/10/20 02:12:29;;;;;;;12.48;6.15;;;6.80;99.90;;;;;;5019085;28;20059;-92
2022/10/20 02:14:55;;;;;;;14.98;6.40;;;6.70;99.90;;;;;;5019094;28;20362;-94
2022/10/20 02:17:20;;;;;;;12.35;6.10;;;6.70;99.90;;;;;;5035179;28;20078;-91
2022/10/20 02:19:47;;;;;;;7.88;5.93;;;6.70;99.90;;;;;;5018257;28;20124;-92
2022/10/20 02:22:13;;;;;;;8.60;6.15;;;7.20;99.90;;;;;;5018808;28;20056;-92
2022/10/20 02:24:40;;;;;;;8.15;5.90;;;6.80;99.90;;;;;;5034917;28;20045;-94
2022/10/20 02:27:14;;;;;;;14.70;6.70;;;6.80;99.90;;;;;;5018865;28;20479;-94
2022/10/20 02:29:46;;;;;;;10.30;6.72;;;6.80;99.90;;;;;;5037725;28;20469;-93
2022/10/20 02:32:12;;;;;;;9.00;6.15;;;6.80;99.90;;;;;;5039487;28;20075;-94
2022/10/20 02:34:38;;;;;;;10.95;6.80;;;6.80;99.90;;;;;;5022155;28;20060;-93
2022/10/20 02:37:06;;;;;;;11.30;6.07;;;6.80;99.90;;;;;;5005941;28;20381;-92
2022/10/20 02:39:32;;;;;;;8.68;6.22;;;7.20;99.90;;;;;;5054611;28;20458;-91
2022/10/20 02:41:58;;;;;;;11.23;7.25;;;6.80;99.90;;;;;;5022144;28;20112;-91
2022/10/20 02:44:23;;;;;;;10.25;5.80;;;6.80;99.90;;;;;;5040800;28;20052;-93
2022/10/20 02:46:49;;;;;;;12.63;6.40;;;6.90;99.90;;;;;;5046037;28;20048;-91
2022/10/20 02:49:14;;;;;;;8.98;6.43;;;6.80;99.90;;;;;;5043329;28;20103;-93
2022/10/20 02:51:40;;;;;;;11.40;6.75;;;7.50;99.90;;;;;;5058121;28;20055;-94
2022/10/20 02:54:06;;;;;;;12.85;7.75;;;6.80;99.90;;;;;;5063049;28;20053;-91
2022/10/20 02:56:31;;;;;;;13.30;7.03;;;6.90;99.90;;;;;;5038265;28;20492;-88
2022/10/20 02:58:57;;;;;;;11.43;7.32;;;6.80;99.90;;;;;;5055269;28;20124;-91
2022/10/20 03:01:24;;;;;;;9.38;6.28;;;6.90;99.90;;;;;;5021653;28;20498;-93
2022/10/20 03:03:50;;;;;;;13.85;7.03;;;6.80;99.90;;;;;;5037769;28;20053;-92
2022/10/20 03:06:15;;;;;;;12.18;6.93;;;6.80;99.90;;;;;;5038050;28;20045;-94
2022/10/20 03:08:41;;;;;;;8.88;7.05;;;6.80;99.90;;;;;;5021568;28;20469;-95
2022/10/20 03:11:07;;;;;;;14.05;7.95;;;6.90;99.90;;;;;;5046891;28;20025;-87
2022/10/20 03:13:35;;;;;;;9.98;6.85;;;6.90;99.90;;;;;;5061447;28;20097;-84
2022/10/20 03:16:01;;;;;;;12.73;7.45;;;6.90;99.90;;;;;;5079045;28;20027;-86
2022/10/20 03:18:27;;;;;;;11.63;7.90;;;6.80;99.90;;;;;;5038817;28;20481;-91
2022/10/20 03:20:53;;;;;;;11.60;7.68;;;6.80;99.90;;;;;;5022119;28;20048;-91
2022/10/20 03:23:19;;;;;;;14.50;8.20;;;6.80;99.90;;;;;;5056228;28;20048;-92
2022/10/20 03:25:44;;;;;;;11.90;8.02;;;6.70;99.90;;;;;;5021751;28;20099;-91
2022/10/20 03:28:10;;;;;;;9.75;6.63;;;6.80;99.90;;;;;;5057090;28;20044;-91
2022/10/20 03:30:36;;;;;;;10.50;6.35;;;6.70;99.90;;;;;;5039571;28;20044;-92
2022/10/20 03:33:01;;;;;;;12.02;8.15;;;7.00;99.90;;;;;;5023112;28;20041;-94
2022/10/20 03:35:27;;;;;;;12.57;8.65;;;6.70;99.90;;;;;;5041106;28;20044;-91
2022/10/20 03:37:53;;;;;;;9.68;6.28;;;7.30;99.90;;;;;;5039421;28;20045;-93
2022/10/20 03:40:18;;;;;;;12.85;9.15;;;6.80;99.90;;;;;;5058434;28;20045;-91
2022/10/20 03:42:44;;;;;;;16.88;9.20;;;7.00;99.90;;;;;;5041395;28;20041;-91
2022/10/20 03:45:10;;;;;;;13.60;8.57;;;6.80;99.90;;;;;;5040792;28;20053;-91
2022/10/20 03:47:35;;;;;;;15.05;10.05;;;6.80;99.90;;;;;;5024669;28;20413;-89
2022/10/20 03:50:01;;;;;;;16.80;10.20;;;6.70;99.90;;;;;;5041618;28;20441;-90
2022/10/20 03:52:27;;;;;;;9.75;6.95;;;6.80;99.90;;;;;;5043104;28;20061;-92
2022/10/20 03:54:52;;;;;;;12.65;7.97;;;6.70;99.90;;;;;;5025047;28;20123;-92
2022/10/20 03:57:19;;;;;;;12.52;7.70;;;6.90;99.90;;;;;;5040258;28;20335;-93
2022/10/20 03:59:45;;;;;;;11.90;8.63;;;6.90;99.90;;;;;;5027825;28;20087;-89
2022/10/20 04:02:31;;;;;;;14.63;9.85;;;7.20;99.90;;;;;;5051158;28;20041;-88
2022/10/20 04:04:57;;;;;;;18.45;10.65;;;7.80;99.90;;;;;;5031390;28;20106;-92
2022/10/20 04:07:22;;;;;;;14.30;9.63;;;6.80;99.90;;;;;;5065151;28;20029;-91
2022/10/20 04:09:48;;;;;;;14.77;10.63;;;7.80;99.90;;;;;;5048648;28;20045;-91
2022/10/20 04:12:13;;;;;;;16.17;9.43;;;6.80;99.90;;;;;;5030922;28;20193;-93
2022/10/20 04:14:40;;;;;;;14.23;8.95;;;6.90;99.90;;;;;;5046844;28;20033;-91
2022/10/20 04:17:05;;;;;;;13.90;10.32;;;7.10;99.90;;;;;;5062283;28;20091;-93
2022/10/20 04:19:37;;;;;;;18.02;10.13;;;6.80;99.90;;;;;;5037865;28;20048;-93
2022/10/20 04:22:03;;;;;;;14.95;9.90;;;6.90;99.90;;;;;;5054068;28;20037;-93
2022/10/20 04:24:29;;;;;;;14.88;10.65;;;7.20;99.90;;;;;;5053224;28;20041;-94
2022/10/20 04:26:54;;;;;;;14.13;10.43;;;7.10;99.90;;;;;;5065296;28;20029;-92
2022/10/20 04:29:20;;;;;;;14.80;9.38;;;6.80;99.90;;;;;;5076500;28;20275;-89
2022/10/20 04:31:45;;;;;;;15.65;10.40;;;6.70;99.90;;;;;;5053692;28;20431;-92
2022/10/20 04:34:11;;;;;;;15.85;10.25;;;7.50;99.90;;;;;;5039236;28;20037;-92
2022/10/20 04:36:37;;;;;;;17.92;11.32;;;6.80;99.90;;;;;;5036890;28;20091;-90
2022/10/20 04:39:05;;;;;;;15.73;11.05;;;7.10;99.90;;;;;;5053544;28;20057;-93
2022/10/20 04:41:31;;;;;;;13.13;9.80;;;6.60;99.90;;;;;;5053035;28;20120;-94
2022/10/20 04:43:56;;;;;;;16.75;12.10;;;6.70;99.90;;;;;;5052964;28;20088;-92
2022/10/20 04:46:22;;;;;;;15.73;11.52;;;6.70;99.90;;;;;;5036427;28;20560;-92
2022/10/20 04:48:47;;;;;;;17.98;10.65;;;6.70;99.90;;;;;;5019944;28;20045;-90
2022/10/20 04:51:14;;;;;;;13.38;8.68;;;6.60;99.90;;;;;;5052160;28;20083;-92
2022/10/20 04:53:39;;;;;;;16.00;10.30;;;6.80;99.90;;;;;;5020587;28;20362;-92
2022/10/20 04:56:06;;;;;;;18.40;12.50;;;6.70;99.90;;;;;;5036125;28;20056;-94
2022/10/20 04:58:31;;;;;;;17.13;11.05;;;6.60;99.90;;;;;;5036344;28;20053;-92
2022/10/20 05:01:16;;;;;;;13.13;9.50;;;6.80;99.90;;;;;;5035842;28;20037;-93
2022/10/20 05:03:41;;;;;;;14.98;11.13;;;6.70;99.90;;;;;;5019834;28;20055;-93
2022/10/20 05:06:23;;;;;;;16.67;10.50;;;6.80;99.90;;;;;;5019784;28;20489;-94
2022/10/20 05:08:52;;;;;;;15.27;10.45;;;6.80;99.90;;;;;;5036494;28;20052;-91
2022/10/20 05:11:18;;;;;;;18.23;11.70;;;6.80;99.90;;;;;;5036367;28;20045;-95
2022/10/20 05:13:43;;;;;;;14.38;11.38;;;6.70;99.90;;;;;;5035842;28;20049;-91
2022/10/20 05:16:09;;;;;;;20.38;12.85;;;6.80;99.90;;;;;;5035794;28;20461;-93
2022/10/20 05:18:35;;;;;;;21.25;12.40;;;6.70;99.90;;;;;;5036081;28;20080;-91
2022/10/20 05:21:05;;;;;;;20.17;11.90;;;7.20;99.90;;;;;;5036250;28;20037;-89
2022/10/20 05:23:31;;;;;;;17.05;12.48;;;6.70;99.90;;;;;;5037363;28;20095;-93
2022/10/20 05:25:57;;;;;;;20.13;12.50;;;6.70;99.90;;;;;;5053563;28;20044;-94
2022/10/20 05:28:22;;;;;;;15.68;10.88;;;6.60;99.90;;;;;;5035663;28;20037;-94
2022/10/20 05:30:48;;;;;;;18.65;12.82;;;6.60;99.90;;;;;;5052531;28;20071;-92
2022/10/20 05:33:14;;;;;;;16.48;11.77;;;6.70;99.90;;;;;;5035530;28;20106;-93
2022/10/20 05:35:45;;;;;;;24.05;12.25;;;6.60;99.90;;;;;;5053314;28;20043;-92
2022/10/20 05:38:11;;;;;;;17.17;12.80;;;6.70;99.90;;;;;;5052068;28;20033;-94
2022/10/20 05:40:37;;;;;;;16.40;13.02;;;6.60;99.90;;;;;;5052271;28;20048;-92
2022/10/20 05:43:02;;;;;;;18.77;13.55;;;6.60;99.90;;;;;;5066608;28;20066;-85
2022/10/20 05:45:28;;;;;;;18.55;13.07;;;6.60;99.90;;;;;;5059113;28;20040;-90
2022/10/20 05:47:53;;;;;;;21.05;14.15;;;6.50;99.90;;;;;;5058899;28;20044;-83
2022/10/20 05:50:19;;;;;;;16.50;11.90;;;6.50;99.90;;;;;;5060987;28;20049;-93
2022/10/20 05:52:45;;;;;;;20.30;12.80;;;6.60;99.90;;;;;;5036025;28;20048;-92
2022/10/20 05:55:10;;;;;;;19.27;12.95;;;7.10;99.90;;;;;;5052462;28;20167;-92
2022/10/20 05:57:36;;;;;;;19.85;13.75;;;6.50;99.90;;;;;;5019297;28;20068;-91
2022/10/20 06:00:05;;;;;;;16.25;12.32;;;6.80;99.90;;;;;;5052210;28;20045;-92
2022/10/20 06:02:31;;;;;;;19.50;14.65;;;6.50;99.90;;;;;;5019890;28;20135;-93
2022/10/20 06:04:56;;;;;;;17.70;10.93;;;6.50;99.90;;;;;;5055714;28;20183;-93
2022/10/20 06:07:22;;;;;;;13.63;10.32;;;6.50;99.90;;;;;;5039567;28;20041;-95
2022/10/20 06:09:48;;;;;;;21.73;13.52;;;6.50;99.90;;;;;;5056167;28;20095;-94
2022/10/20 06:12:13;;;;;;;21.20;13.48;;;6.50;99.90;;;;;;5055448;28;20848;-91
2022/10/20 06:14:39;;;;;;;20.08;14.45;;;6.60;99.90;;;;;;5056267;28;20048;-94
2022/10/20 06:17:04;;;;;;;21.02;11.93;;;6.50;99.90;;;;;;5055604;28;20481;-93
2022/10/20 06:19:30;;;;;;;16.60;11.73;;;7.50;99.90;;;;;;5055981;28;20049;-92
2022/10/20 06:21:56;;;;;;;19.88;12.82;;;6.60;99.90;;;;;;5055769;28;20037;-90
2022/10/20 06:24:21;;;;;;;18.60;12.93;;;6.70;99.90;;;;;;5038978;28;20044;-91
2022/10/20 06:26:47;;;;;;;24.30;13.13;;;6.60;99.90;;;;;;5039096;28;20041;-94
2022/10/20 06:29:14;;;;;;;19.15;14.55;;;6.60;99.90;;;;;;5038550;28;20041;-93
2022/10/20 06:31:50;;;;;;;18.63;14.10;;;6.70;99.90;;;;;;5039017;28;20044;-93
2022/10/20 06:34:20;;;;;;;19.88;12.45;;;6.70;99.90;;;;;;5038288;28;20060;-91
2022/10/20 06:36:46;;;;;;;18.88;13.85;;;6.60;99.90;;;;;;5022571;28;20057;-93
2022/10/20 06:39:20;;;;;;;21.95;14.52;;;6.80;99.90;;;;;;5021693;28;20100;-90
2022/10/20 06:41:49;;;;;;;21.15;11.90;;;6.70;99.90;;;;;;5040753;28;20100;-89
2022/10/20 06:44:14;;;;;;;21.00;14.85;;;6.80;99.90;;;;;;5038598;28;20133;-91
2022/10/20 06:46:40;;;;;;;16.60;10.82;;;6.80;99.90;;;;;;5038763;28;20076;-91
2022/10/20 06:49:06;;;;;;;20.50;13.75;;;6.90;99.90;;;;;;5038497;28;20081;-93
2022/10/20 06:51:33;;;;;;;21.38;13.60;;;6.90;99.90;;;;;;5038152;28;20045;-94
2022/10/20 06:53:59;;;;;;;21.65;13.93;;;7.00;99.90;;;;;;5054884;28;20033;-83
2022/10/20 06:56:26;;;;;;;20.38;13.88;;;7.90;99.90;;;;;;5054979;28;20051;-93
2022/10/20 06:58:52;;;;;;;19.52;13.77;;;7.20;99.90;;;;;;5044149;28;20044;-85
2022/10/20 07:01:19;;;;;;;19.20;12.88;;;7.10;99.90;;;;;;5060967;28;20060;-87
2022/10/20 07:03:45;;;;;;;16.02;11.50;;;7.30;99.90;;;;;;5060212;28;20048;-91
2022/10/20 07:06:23;;;;;;;20.08;14.00;;;7.40;99.90;;;;;;5035870;28;20044;-87
2022/10/20 07:08:49;;;;;;;20.38;11.90;;;7.40;99.90;;;;;;5034912;28;20091;-89
2022/10/20 07:11:20;;;;;;;18.80;12.90;;;8.20;99.90;;;;;;5036883;28;20043;-87
2022/10/20 07:13:46;;;;;;;24.02;13.93;;;7.50;99.90;;;;;;5036459;28;20120;-88
2022/10/20 07:16:13;;;;;;;15.82;11.02;;;7.70;99.90;;;;;;5053081;28;20048;-88
2022/10/20 07:18:38;;;;;;;17.38;11.82;;;8.40;99.90;;;;;;5037138;28;20041;-87
2022/10/20 07:21:06;;;;;;;18.95;13.35;;;7.70;99.90;;;;;;5052725;28;20118;-89
2022/10/20 07:23:32;;;;;;;19.88;12.70;;;7.70;99.90;;;;;;5036449;28;20041;-88
2022/10/20 07:26:09;;;;;;;19.77;13.13;;;7.80;99.90;;;;;;5052062;28;20099;-85
2022/10/20 07:28:35;;;;;;;15.80;11.70;;;7.90;99.90;;;;;;5019574;28;20041;-87
2022/10/20 07:31:11;;;;;;;16.35;11.10;;;8.00;99.90;;;;;;5039672;28;20051;-86
2022/10/20 07:33:37;;;;;;;16.65;11.35;;;7.90;99.90;;;;;;5035637;28;20151;-86
2022/10/20 07:36:22;;;;;;;18.27;9.88;;;7.90;99.90;;;;;;5034922;28;20151;-86
2022/10/20 07:38:49;;;;;;;16.50;12.10;;;7.90;99.90;;;;;;5035321;28;20098;-88
2022/10/20 07:41:15;;;;;;;19.40;12.77;;;7.90;99.90;;;;;;5035386;28;20579;-88
2022/10/20 07:43:41;;;;;;;17.27;11.85;;;7.70;99.90;;;;;;5051759;28;20076;-86
2022/10/20 07:46:07;;;;;;;14.77;11.70;;;7.80;99.90;;;;;;5034283;28;20432;-88
2022/10/20 07:48:32;;;;;;;16.55;12.20;;;7.80;99.90;;;;;;5034760;28;20045;-86
2022/10/20 07:51:24;;;;;;;17.02;12.30;;;7.80;99.90;;;;;;5034719;28;20041;-86
2022/10/20 07:53:51;;;;;;;16.90;11.77;;;7.80;99.90;;;;;;5035315;28;20134;-87
2022/10/20 07:56:17;;;;;;;17.50;12.10;;;8.00;99.90;;;;;;5050716;28;20492;-86
2022/10/20 07:58:43;;;;;;;17.63;11.52;;;8.00;99.90;;;;;;5034317;28;20057;-88
2022/10/20 08:01:08;;;;;;;19.98;12.88;;;8.00;99.90;;;;;;5018821;28;20112;-88
2022/10/20 08:03:34;;;;;;;14.70;11.23;;;8.10;99.90;;;;;;5035688;28;20041;-88
2022/10/20 08:06:00;;;;;;;15.82;11.88;;;8.20;99.90;;;;;;5034721;28;20048;-88
2022/10/20 08:08:26;;;;;;;15.35;10.27;;;8.20;99.90;;;;;;5034298;28;20094;-86
2022/10/20 08:10:51;;;;;;;16.25;10.95;;;8.40;99.90;;;;;;5018336;28;20057;-85
2022/10/20 08:13:17;;;;;;;18.02;12.27;;;8.40;99.90;;;;;;5048067;28;20100;-84
2022/10/20 08:15:43;;;;;;;12.95;9.73;;;8.40;99.90;;;;;;5052213;28;20088;-84
2022/10/20 08:18:08;;;;;;;11.55;8.38;;;8.40;99.90;;;;;;5041812;28;20028;-83
2022/10/20 08:20:34;;;;;;;18.13;11.65;;;8.80;99.90;;;;;;5039368;28;20037;-89
2022/10/20 08:23:00;;;;;;;12.77;9.85;;;9.00;99.90;;;;;;5035315;28;20037;-87
2022/10/20 08:25:25;;;;;;;18.23;11.35;;;9.20;99.90;;;;;;5034287;28;20250;-85
2022/10/20 08:27:51;;;;;;;13.00;9.63;;;9.20;99.90;;;;;;5034681;28;20380;-86
2022/10/20 08:30:17;;;;;;;13.43;9.93;;;9.30;99.90;;;;;;5034200;28;20376;-86
2022/10/20 08:32:42;;;;;;;16.27;10.68;;;9.40;99.90;;;;;;5018389;28;20033;-85
2022/10/20 08:35:08;;;;;;;15.50;9.73;;;9.30;99.90;;;;;;5034644;28;20128;-88
2022/10/20 08:37:35;;;;;;;8.27;6.38;;;9.40;99.90;;;;;;5039864;28;20045;-91
2022/10/20 08:40:04;;;;;;;11.93;8.73;;;9.50;99.90;;;;;;5038187;28;20048;-91
2022/10/20 08:42:37;;;;;;;10.48;7.82;;;9.50;99.90;;;;;;5052382;28;20076;-91
2022/10/20 08:45:05;;;;;;;11.68;9.57;;;9.60;99.90;;;;;;5004031;28;20041;-90
2022/10/20 08:47:33;;;;;;;12.40;8.18;;;9.90;99.90;;;;;;5022779;28;20060;-90
2022/10/20 08:49:59;;;;;;;11.10;8.60;;;9.90;99.90;;;;;;5004919;28;20053;-89
2022/10/20 08:52:25;;;;;;;10.48;7.70;;;10.10;99.90;;;;;;5018691;28;20097;-89
2022/10/20 08:54:54;;;;;;;11.82;8.57;;;10.20;99.90;;;;;;5020042;28;20045;-87
2022/10/20 08:57:23;;;;;;;9.15;6.40;;;10.20;99.90;;;;;;5038087;28;20057;-92
2022/10/20 08:59:51;;;;;;;8.80;7.18;;;10.40;99.90;;;;;;5040818;28;20052;-90
2022/10/20 09:02:17;;;;;;;13.32;7.53;;;10.30;99.90;;;;;;5056127;28;20416;-88
2022/10/20 09:04:49;;;;;;;11.43;8.70;;;10.30;99.90;;;;;;5052784;28;20045;-92
2022/10/20 09:07:26;;;;;;;15.02;8.98;;;10.30;99.90;;;;;;5019284;28;20359;-86
2022/10/20 09:09:52;;;;;;;9.98;7.78;;;10.50;99.90;;;;;;5022939;28;20051;-91
2022/10/20 09:12:18;;;;;;;10.27;7.40;;;10.70;99.90;;;;;;5036424;28;20048;-91
2022/10/20 09:14:43;;;;;;;10.85;7.85;;;10.90;99.90;;;;;;5034520;28;20136;-87
2022/10/20 09:17:13;;;;;;;10.75;8.45;;;10.90;99.90;;;;;;5033629;28;20147;-88
2022/10/20 09:19:40;;;;;;;9.30;7.45;;;11.00;99.90;;;;;;5001192;28;20047;-89
2022/10/20 09:22:06;;;;;;;12.35;9.23;;;10.90;99.90;;;;;;5016809;28;20051;-89
2022/10/20 09:24:32;;;;;;;12.27;8.60;;;11.00;99.90;;;;;;5035198;28;20534;-89
2022/10/20 09:27:19;;;;;;;12.45;8.48;;;10.90;99.90;;;;;;5028155;28;20048;-85
2022/10/20 09:29:45;;;;;;;9.73;7.60;;;11.20;99.90;;;;;;5041485;28;20044;-86
2022/10/20 09:32:30;;;;;;;10.30;8.20;;;11.10;99.90;;;;;;5057247;28;20029;-85
2022/10/20 09:35:14;;;;;;;10.52;6.45;;;11.10;99.90;;;;;;5041195;28;20304;-92
2022/10/20 09:37:40;;;;;;;11.38;7.82;;;11.10;99.90;;;;;;5053137;28;20292;-90
2022/10/20 09:40:14;;;;;;;9.82;7.78;;;11.10;99.90;;;;;;5038716;28;20057;-89
2022/10/20 09:42:44;;;;;;;6.90;5.53;;;11.00;99.90;;;;;;5026566;28;20190;-89
2022/10/20 09:45:21;;;;;;;9.90;8.40;;;11.10;99.90;;;;;;5052136;28;20033;-83
2022/10/20 09:47:51;;;;;;;13.00;7.78;;;10.90;99.90;;;;;;5038984;28;20412;-93
2022/10/20 09:50:26;;;;;;;7.85;6.25;;;11.00;99.90;;;;;;5035352;28;20046;-94
2022/10/20 09:52:52;;;;;;;9.77;6.80;;;11.10;99.90;;;;;;5033917;28;20128;-91
2022/10/20 09:55:32;;;;;;;9.25;6.65;;;11.30;99.90;;;;;;5031267;28;20044;-90
2022/10/20 09:57:59;;;;;;;7.68;5.75;;;11.20;99.90;;;;;;5042677;28;20491;-93
2022/10/20 10:00:30;;;;;;;11.77;7.00;;;11.20;99.90;;;;;;5027255;28;20084;-93
2022/10/20 10:03:13;;;;;;;8.57;6.05;;;11.30;99.90;;;;;;5027327;28;20045;-92
2022/10/20 10:05:39;;;;;;;8.88;7.45;;;11.30;99.90;;;;;;5015959;28;20040;-96
2022/10/20 10:08:06;;;;;;;8.57;7.57;;;11.30;99.90;;;;;;5048692;28;20075;-91
2022/10/20 10:10:31;;;;;;;10.38;7.82;;;11.50;99.90;;;;;;5039815;28;20044;-90
2022/10/20 10:13:03;;;;;;;8.10;6.18;;;11.50;99.90;;;;;;5023371;28;20033;-95
2022/10/20 10:15:31;;;;;;;9.95;6.57;;;11.40;99.90;;;;;;5038448;28;20037;-93
2022/10/20 10:17:57;;;;;;;10.32;7.57;;;11.60;99.90;;;;;;5018055;28;20088;-92
2022/10/20 10:20:22;;;;;;;10.55;6.85;;;11.50;99.90;;;;;;5036081;28;20080;-92
2022/10/20 10:22:48;;;;;;;10.43;7.80;;;12.20;99.90;;;;;;5070197;28;20033;-92
2022/10/20 10:25:23;;;;;;;10.20;7.88;;;11.90;99.90;;;;;;5034387;28;20048;-88
2022/10/20 10:28:07;;;;;;;13.75;7.45;;;11.70;99.90;;;;;;5030384;28;20405;-93
2022/10/20 10:30:37;;;;;;;7.78;6.53;;;11.70;99.90;;;;;;5064469;28;20128;-94
2022/10/20 10:33:27;;;;;;;8.68;7.30;;;11.90;99.90;;;;;;5025324;28;20053;-87
2022/10/20 10:35:52;;;;;;;7.50;6.57;;;11.80;99.90;;;;;;5038380;28;20053;-87
2022/10/20 10:38:19;;;;;;;8.07;7.13;;;11.90;99.90;;;;;;5037096;28;20045;-87
2022/10/20 10:40:49;;;;;;;8.30;7.50;;;11.90;99.90;;;;;;5019892;28;20056;-88
2022/10/20 10:43:37;;;;;;;8.57;7.32;;;12.10;99.90;;;;;;5053774;28;20068;-87
2022/10/20 10:46:07;;;;;;;8.95;8.02;;;12.30;99.90;;;;;;5057897;28;20063;-86
2022/10/20 10:49:03;;;;;;;11.10;8.07;;;12.50;99.90;;;;;;5072340;28;20244;-89
2022/10/20 10:51:44;;;;;;;8.55;6.63;;;12.50;99.90;;;;;;5050559;28;20057;-94
2022/10/20 10:54:28;;;;;;;8.70;6.82;;;12.90;99.90;;;;;;5054276;28;20045;-89
2022/10/20 10:57:16;;;;;;;8.02;6.18;;;12.70;99.90;;;;;;5021424;28;20448;-91
2022/10/20 10:59:42;;;;;;;11.25;8.25;;;12.80;99.90;;;;;;5040845;28;21262;-93
2022/10/20 11:02:23;;;;;;;9.23;7.07;;;13.00;99.90;;;;;;5019134;28;20052;-89
2022/10/20 11:05:12;;;;;;;8.65;7.32;;;12.90;99.90;;;;;;5035530;28;20590;-90
2022/10/20 11:07:44;;;;;;;11.10;6.72;;;13.30;99.90;;;;;;5045253;28;20056;-88
2022/10/20 11:10:47;;;;;;;8.35;6.93;;;13.40;99.90;;;;;;5036870;28;20048;-87
2022/10/20 11:13:46;;;;;;;9.93;8.45;;;13.50;99.90;;;;;;5053908;28;20511;-91
2022/10/20 11:16:40;;;;;;;9.65;7.90;;;13.10;99.90;;;;;;5003951;28;20049;-87
2022/10/20 11:19:18;;;;;;;5.97;5.15;;;13.10;99.90;;;;;;5059482;28;20041;-91
2022/10/20 11:21:50;;;;;;;10.93;7.55;;;13.40;99.90;;;;;;5039013;28;20179;-89
2022/10/20 11:24:31;;;;;;;9.48;7.90;;;13.40;99.90;;;;;;5037759;28;20044;-91
2022/10/20 11:27:12;;;;;;;9.88;7.47;;;13.40;99.90;;;;;;5020968;28;20045;-88
2022/10/20 11:29:51;;;;;;;10.05;7.55;;;13.40;99.90;;;;;;5035082;28;20098;-88
2022/10/20 11:32:40;;;;;;;9.55;7.22;;;13.30;99.90;;;;;;5020883;28;20132;-90
2022/10/20 11:35:33;;;;;;;9.82;8.52;;;13.40;99.90;;;;;;5053410;28;20123;-92
2022/10/20 11:38:20;;;;;;;9.65;7.65;;;13.40;99.90;;;;;;5055793;28;20053;-91
2022/10/20 11:40:56;;;;;;;11.85;8.10;;;13.40;99.90;;;;;;5024247;28;20084;-89
2022/10/20 11:43:26;;;;;;;11.95;8.20;;;14.20;99.90;;;;;;5054430;28;20049;-89
2022/10/20 11:46:10;;;;;;;11.13;7.85;;;13.30;99.90;;;;;;5039727;28;20512;-92
2022/10/20 11:48:41;;;;;;;10.18;8.65;;;13.40;99.90;;;;;;5054382;28;20576;-89
2022/10/20 11:51:09;;;;;;;8.98;7.60;;;13.50;99.90;;;;;;5037440;28;20056;-88
2022/10/20 11:53:43;;;;;;;8.65;7.78;;;13.60;99.90;;;;;;5052551;28;20060;-90
2022/10/20 11:56:20;;;;;;;12.80;8.48;;;13.50;99.90;;;;;;5037565;28;20044;-88
2022/10/20 11:59:07;;;;;;;11.45;8.20;;;13.60;99.90;;;;;;5038828;28;20068;-88
2022/10/20 12:01:53;;;;;;;12.38;8.52;;;13.70;99.90;;;;;;5043947;28;20052;-86
2022/10/20 12:04:26;;;;;;;10.05;8.15;;;13.50;99.90;;;;;;5025404;28;20028;-90
2022/10/20 12:07:04;;;;;;;11.23;8.35;;;13.50;99.90;;;;;;5021074;28;20080;-88
2022/10/20 12:09:45;;;;;;;9.77;8.77;;;13.60;99.90;;;;;;5053623;28;20067;-88
2022/10/20 12:12:31;;;;;;;9.63;8.35;;;13.70;99.90;;;;;;5036975;28;20075;-88
2022/10/20 12:15:00;;;;;;;9.10;7.80;;;14.10;99.90;;;;;;5004494;28;20413;-91
2022/10/20 12:17:35;;;;;;;12.35;8.70;;;13.60;99.90;;;;;;5019961;28;20511;-87
2022/10/20 12:20:19;;;;;;;10.52;8.63;;;13.50;99.90;;;;;;5019932;28;20596;-89
2022/10/20 12:22:46;;;;;;;12.35;8.50;;;12.40;99.90;;;;;;5051856;28;20052;-89
2022/10/20 12:25:18;;;;;;;11.98;8.45;;;13.50;99.90;;;;;;5003792;28;20099;-88
2022/10/20 12:27:44;;;;;;;11.73;8.70;;;13.50;99.90;;;;;;5033510;28;20040;-90
2022/10/20 12:30:37;;;;;;;9.40;8.40;;;13.60;99.90;;;;;;5052700;28;20375;-90
2022/10/20 12:33:17;;;;;;;12.00;9.07;;;13.50;99.90;;;;;;5036677;28;20396;-91
2022/10/20 12:36:00;;;;;;;10.93;8.80;;;13.50;99.90;;;;;;5036833;28;20088;-92
2022/10/20 12:38:26;;;;;;;11.30;8.65;;;13.50;99.90;;;;;;5010860;28;20080;-92
2022/10/20 12:40:56;;;;;;;12.55;9.77;;;13.40;99.90;;;;;;5045198;28;20040;-92
2022/10/20 12:43:31;;;;;;;10.05;8.65;;;13.30;99.90;;;;;;5052099;28;20028;-92
2022/10/20 12:45:57;;;;;;;;;;;13.30;99.90;;;;;;5051574;28;20056;-93
2022/10/20 12:48:23;;;;;;;14.15;9.07;;;13.30;99.90;;;;;;5051875;28;19920;-92
2022/10/20 12:50:49;;;;;;;12.63;9.20;;;13.20;99.90;;;;;;5050102;28;20056;-91
2022/10/20 12:53:25;;;;;;;11.10;8.82;;;13.30;99.90;;;;;;5008324;28;20087;-87
2022/10/20 12:56:05;;;;;;;11.00;9.43;;;13.20;99.90;;;;;;5039342;28;20053;-89
2022/10/20 12:58:35;;;;;;;15.60;10.32;;;13.20;99.90;;;;;;5021411;28;20045;-91